sensor_id;sensor_type;location;lat;lon;timestamp;temperature;humidity
58339;DHT22;48278;52.704;6.536;2022-12-07T00:01:26;3.20;99.90
58339;DHT22;48278;52.704;6.536;2022-12-07T00:03:54;3.10;99.90
58339;DHT22;48278;52.704;6.536;2022-12-07T00:06:22;3.00;99.90
58339;DHT22;48278;52.704;6.536;2022-12-07T00:08:48;3.00;99.90
58339;DHT22;48278;52.704;6.536;2022-12-07T00:11:16;3.00;99.90
58339;DHT22;48278;52.704;6.536;2022-12-07T00:13:43;2.90;99.90
58339;DHT22;48278;52.704;6.536;2022-12-07T00:16:13;2.90;99.90
58339;DHT22;48278;52.704;6.536;2022-12-07T00:18:40;2.80;99.90
58339;DHT22;48278;52.704;6.536;2022-12-07T00:23:36;2.80;99.90
58339;DHT22;48278;52.704;6.536;2022-12-07T00:26:04;2.70;99.90
58339;DHT22;48278;52.704;6.536;2022-12-07T00:28:30;2.70;99.90
58339;DHT22;48278;52.704;6.536;2022-12-07T00:31:10;2.60;99.90
58339;DHT22;48278;52.704;6.536;2022-12-07T00:33:36;2.60;99.90
58339;DHT22;48278;52.704;6.536;2022-12-07T00:36:04;2.60;99.90
58339;DHT22;48278;52.704;6.536;2022-12-07T00:38:32;2.50;99.90
58339;DHT22;48278;52.704;6.536;2022-12-07T00:41:00;2.50;99.90
58339;DHT22;48278;52.704;6.536;2022-12-07T00:43:26;2.60;99.90
58339;DHT22;48278;52.704;6.536;2022-12-07T00:45:53;2.60;99.90
58339;DHT22;48278;52.704;6.536;2022-12-07T00:48:19;2.60;99.90
58339;DHT22;48278;52.704;6.536;2022-12-07T00:50:44;2.70;99.90
58339;DHT22;48278;52.704;6.536;2022-12-07T00:53:10;2.80;99.90
58339;DHT22;48278;52.704;6.536;2022-12-07T00:55:36;2.80;99.90
58339;DHT22;48278;52.704;6.536;2022-12-07T00:58:02;2.90;99.90
58339;DHT22;48278;52.704;6.536;2022-12-07T01:00:29;3.00;99.90
58339;DHT22;48278;52.704;6.536;2022-12-07T01:02:54;3.00;99.90
58339;DHT22;48278;52.704;6.536;2022-12-07T01:05:20;3.00;99.90
58339;DHT22;48278;52.704;6.536;2022-12-07T01:07:46;3.10;99.90
58339;DHT22;48278;52.704;6.536;2022-12-07T01:10:13;3.00;99.90
58339;DHT22;48278;52.704;6.536;2022-12-07T01:12:39;3.00;99.90
58339;DHT22;48278;52.704;6.536;2022-12-07T01:15:06;3.10;99.90
58339;DHT22;48278;52.704;6.536;2022-12-07T01:17:32;3.10;99.90
58339;DHT22;48278;52.704;6.536;2022-12-07T01:19:57;3.20;99.90
58339;DHT22;48278;52.704;6.536;2022-12-07T01:22:23;3.20;99.90
58339;DHT22;48278;52.704;6.536;2022-12-07T01:24:49;3.20;99.90
58339;DHT22;48278;52.704;6.536;2022-12-07T01:27:15;3.20;99.90
58339;DHT22;48278;52.704;6.536;2022-12-07T01:29:41;3.30;99.90
58339;DHT22;48278;52.704;6.536;2022-12-07T01:32:06;3.40;99.90
58339;DHT22;48278;52.704;6.536;2022-12-07T01:34:32;3.40;99.90
58339;DHT22;48278;52.704;6.536;2022-12-07T01:36:58;3.30;99.90
58339;DHT22;48278;52.704;6.536;2022-12-07T01:39:24;3.40;99.90
58339;DHT22;48278;52.704;6.536;2022-12-07T01:41:50;3.40;99.90
58339;DHT22;48278;52.704;6.536;2022-12-07T01:44:24;3.30;99.90
58339;DHT22;48278;52.704;6.536;2022-12-07T01:46:54;3.30;99.90
58339;DHT22;48278;52.704;6.536;2022-12-07T01:49:31;3.20;99.90
58339;DHT22;48278;52.704;6.536;2022-12-07T01:54:39;3.20;99.90
58339;DHT22;48278;52.704;6.536;2022-12-07T01:57:06;3.10;99.90
58339;DHT22;48278;52.704;6.536;2022-12-07T01:59:33;3.10;99.90
58339;DHT22;48278;52.704;6.536;2022-12-07T02:01:59;3.00;99.90
58339;DHT22;48278;52.704;6.536;2022-12-07T02:04:27;2.90;99.90
58339;DHT22;48278;52.704;6.536;2022-12-07T02:06:53;2.90;99.90
58339;DHT22;48278;52.704;6.536;2022-12-07T02:09:20;2.80;99.90
58339;DHT22;48278;52.704;6.536;2022-12-07T02:11:46;2.70;99.90
58339;DHT22;48278;52.704;6.536;2022-12-07T02:14:11;2.70;99.90
58339;DHT22;48278;52.704;6.536;2022-12-07T02:16:44;2.70;99.90
58339;DHT22;48278;52.704;6.536;2022-12-07T02:30:21;2.60;99.90
58339;DHT22;48278;52.704;6.536;2022-12-07T02:33:00;2.50;99.90
58339;DHT22;48278;52.704;6.536;2022-12-07T02:35:32;2.50;99.90
58339;DHT22;48278;52.704;6.536;2022-12-07T02:38:13;2.40;99.90
58339;DHT22;48278;52.704;6.536;2022-12-07T02:40:50;2.30;99.90
58339;DHT22;48278;52.704;6.536;2022-12-07T02:44:06;2.30;99.90
58339;DHT22;48278;52.704;6.536;2022-12-07T02:46:19;2.20;99.90
58339;DHT22;48278;52.704;6.536;2022-12-07T02:48:46;2.20;99.90
58339;DHT22;48278;52.704;6.536;2022-12-07T02:51:12;2.10;99.90
58339;DHT22;48278;52.704;6.536;2022-12-07T02:53:41;2.10;99.90
58339;DHT22;48278;52.704;6.536;2022-12-07T02:56:46;2.10;99.90
58339;DHT22;48278;52.704;6.536;2022-12-07T02:59:29;2.00;99.90
58339;DHT22;48278;52.704;6.536;2022-12-07T03:09:55;2.20;99.90
58339;DHT22;48278;52.704;6.536;2022-12-07T03:13:16;2.40;99.90
58339;DHT22;48278;52.704;6.536;2022-12-07T03:15:26;2.50;99.90
58339;DHT22;48278;52.704;6.536;2022-12-07T03:17:53;2.50;99.90
58339;DHT22;48278;52.704;6.536;2022-12-07T03:20:21;2.60;99.90
58339;DHT22;48278;52.704;6.536;2022-12-07T03:22:49;2.60;99.90
58339;DHT22;48278;52.704;6.536;2022-12-07T03:25:17;2.60;99.90
58339;DHT22;48278;52.704;6.536;2022-12-07T03:27:55;2.60;99.90
58339;DHT22;48278;52.704;6.536;2022-12-07T03:30:28;2.60;99.90
58339;DHT22;48278;52.704;6.536;2022-12-07T03:33:07;2.60;99.90
58339;DHT22;48278;52.704;6.536;2022-12-07T03:35:38;2.60;99.90
58339;DHT22;48278;52.704;6.536;2022-12-07T03:38:17;2.60;99.90
58339;DHT22;48278;52.704;6.536;2022-12-07T03:43:18;2.60;99.90
58339;DHT22;48278;52.704;6.536;2022-12-07T03:51:28;2.60;99.90
58339;DHT22;48278;52.704;6.536;2022-12-07T03:56:51;2.40;99.90
58339;DHT22;48278;52.704;6.536;2022-12-07T03:59:17;2.30;99.90
58339;DHT22;48278;52.704;6.536;2022-12-07T04:01:53;2.30;99.90
58339;DHT22;48278;52.704;6.536;2022-12-07T04:04:20;2.20;99.90
58339;DHT22;48278;52.704;6.536;2022-12-07T04:06:46;2.20;99.90
58339;DHT22;48278;52.704;6.536;2022-12-07T04:09:11;2.10;99.90
58339;DHT22;48278;52.704;6.536;2022-12-07T04:11:40;2.20;99.90
58339;DHT22;48278;52.704;6.536;2022-12-07T04:14:05;2.10;99.90
58339;DHT22;48278;52.704;6.536;2022-12-07T04:19:12;2.00;99.90
58339;DHT22;48278;52.704;6.536;2022-12-07T04:21:38;1.90;99.90
58339;DHT22;48278;52.704;6.536;2022-12-07T04:24:04;1.90;99.90
58339;DHT22;48278;52.704;6.536;2022-12-07T04:26:30;1.90;99.90
58339;DHT22;48278;52.704;6.536;2022-12-07T04:28:56;1.90;99.90
58339;DHT22;48278;52.704;6.536;2022-12-07T04:31:21;1.80;99.90
58339;DHT22;48278;52.704;6.536;2022-12-07T04:33:47;1.90;99.90
58339;DHT22;48278;52.704;6.536;2022-12-07T04:36:13;1.90;99.90
58339;DHT22;48278;52.704;6.536;2022-12-07T04:38:38;1.90;99.90
58339;DHT22;48278;52.704;6.536;2022-12-07T04:41:05;1.80;99.90
58339;DHT22;48278;52.704;6.536;2022-12-07T04:43:31;1.80;99.90
58339;DHT22;48278;52.704;6.536;2022-12-07T04:45:57;1.80;99.90
58339;DHT22;48278;52.704;6.536;2022-12-07T04:48:22;1.70;99.90
58339;DHT22;48278;52.704;6.536;2022-12-07T04:50:49;1.70;99.90
58339;DHT22;48278;52.704;6.536;2022-12-07T04:53:17;1.60;99.90
58339;DHT22;48278;52.704;6.536;2022-12-07T04:55:44;1.60;99.90
58339;DHT22;48278;52.704;6.536;2022-12-07T04:58:11;1.60;99.90
58339;DHT22;48278;52.704;6.536;2022-12-07T05:00:36;1.70;99.90
58339;DHT22;48278;52.704;6.536;2022-12-07T05:03:02;1.70;99.90
58339;DHT22;48278;52.704;6.536;2022-12-07T05:05:28;1.80;99.90
58339;DHT22;48278;52.704;6.536;2022-12-07T05:07:53;1.80;99.90
58339;DHT22;48278;52.704;6.536;2022-12-07T05:10:19;1.90;99.90
58339;DHT22;48278;52.704;6.536;2022-12-07T05:12:45;2.00;99.90
58339;DHT22;48278;52.704;6.536;2022-12-07T05:15:11;2.00;99.90
58339;DHT22;48278;52.704;6.536;2022-12-07T05:17:37;2.00;99.90
58339;DHT22;48278;52.704;6.536;2022-12-07T05:20:04;1.90;99.90
58339;DHT22;48278;52.704;6.536;2022-12-07T05:22:30;2.00;99.90
58339;DHT22;48278;52.704;6.536;2022-12-07T05:24:55;1.90;99.90
58339;DHT22;48278;52.704;6.536;2022-12-07T05:27:21;1.80;99.90
58339;DHT22;48278;52.704;6.536;2022-12-07T05:29:47;1.80;99.90
58339;DHT22;48278;52.704;6.536;2022-12-07T05:32:13;1.80;99.90
58339;DHT22;48278;52.704;6.536;2022-12-07T05:34:39;1.70;99.90
58339;DHT22;48278;52.704;6.536;2022-12-07T05:37:04;1.70;99.90
58339;DHT22;48278;52.704;6.536;2022-12-07T05:39:30;1.60;99.90
58339;DHT22;48278;52.704;6.536;2022-12-07T05:41:56;1.60;99.90
58339;DHT22;48278;52.704;6.536;2022-12-07T05:44:44;1.50;99.90
58339;DHT22;48278;52.704;6.536;2022-12-07T05:47:11;1.50;99.90
58339;DHT22;48278;52.704;6.536;2022-12-07T05:49:36;1.40;99.90
58339;DHT22;48278;52.704;6.536;2022-12-07T05:52:03;1.40;99.90
58339;DHT22;48278;52.704;6.536;2022-12-07T05:54:29;1.30;99.90
58339;DHT22;48278;52.704;6.536;2022-12-07T05:56:55;1.30;99.90
58339;DHT22;48278;52.704;6.536;2022-12-07T05:59:20;1.30;99.90
58339;DHT22;48278;52.704;6.536;2022-12-07T06:02:00;1.20;99.90
58339;DHT22;48278;52.704;6.536;2022-12-07T06:04:29;1.20;99.90
58339;DHT22;48278;52.704;6.536;2022-12-07T06:06:56;1.20;99.90
58339;DHT22;48278;52.704;6.536;2022-12-07T06:09:23;1.20;99.90
58339;DHT22;48278;52.704;6.536;2022-12-07T06:11:49;1.20;99.90
58339;DHT22;48278;52.704;6.536;2022-12-07T06:14:33;1.20;99.90
58339;DHT22;48278;52.704;6.536;2022-12-07T06:16:59;1.20;99.90
58339;DHT22;48278;52.704;6.536;2022-12-07T06:19:25;1.20;99.90
58339;DHT22;48278;52.704;6.536;2022-12-07T06:21:51;1.30;99.90
58339;DHT22;48278;52.704;6.536;2022-12-07T06:24:17;1.40;99.90
58339;DHT22;48278;52.704;6.536;2022-12-07T06:26:44;1.50;99.90
58339;DHT22;48278;52.704;6.536;2022-12-07T06:29:10;1.60;99.90
58339;DHT22;48278;52.704;6.536;2022-12-07T06:31:37;1.60;99.90
58339;DHT22;48278;52.704;6.536;2022-12-07T06:34:06;1.70;99.90
58339;DHT22;48278;52.704;6.536;2022-12-07T06:36:32;1.80;99.90
58339;DHT22;48278;52.704;6.536;2022-12-07T06:38:58;1.90;99.90
58339;DHT22;48278;52.704;6.536;2022-12-07T06:41:24;2.00;99.90
58339;DHT22;48278;52.704;6.536;2022-12-07T06:43:50;2.10;99.90
58339;DHT22;48278;52.704;6.536;2022-12-07T06:46:16;2.30;99.90
58339;DHT22;48278;52.704;6.536;2022-12-07T06:48:43;2.40;99.90
58339;DHT22;48278;52.704;6.536;2022-12-07T06:51:09;2.50;99.90
58339;DHT22;48278;52.704;6.536;2022-12-07T06:53:36;2.60;99.90
58339;DHT22;48278;52.704;6.536;2022-12-07T06:56:03;2.70;99.90
58339;DHT22;48278;52.704;6.536;2022-12-07T06:58:28;2.70;99.90
58339;DHT22;48278;52.704;6.536;2022-12-07T07:00:54;2.80;99.90
58339;DHT22;48278;52.704;6.536;2022-12-07T07:03:20;2.60;99.90
58339;DHT22;48278;52.704;6.536;2022-12-07T07:05:46;2.60;99.90
58339;DHT22;48278;52.704;6.536;2022-12-07T07:08:12;2.60;99.90
58339;DHT22;48278;52.704;6.536;2022-12-07T07:10:38;2.50;99.90
58339;DHT22;48278;52.704;6.536;2022-12-07T07:13:05;2.60;99.90
58339;DHT22;48278;52.704;6.536;2022-12-07T07:15:32;2.60;99.90
58339;DHT22;48278;52.704;6.536;2022-12-07T07:17:58;2.60;99.90
58339;DHT22;48278;52.704;6.536;2022-12-07T07:20:24;2.60;99.90
58339;DHT22;48278;52.704;6.536;2022-12-07T07:22:50;2.60;99.90
58339;DHT22;48278;52.704;6.536;2022-12-07T07:25:16;2.70;99.90
58339;DHT22;48278;52.704;6.536;2022-12-07T07:27:42;2.70;99.90
58339;DHT22;48278;52.704;6.536;2022-12-07T07:30:08;2.70;99.90
58339;DHT22;48278;52.704;6.536;2022-12-07T07:32:34;2.70;99.90
58339;DHT22;48278;52.704;6.536;2022-12-07T07:35:00;2.80;99.90
58339;DHT22;48278;52.704;6.536;2022-12-07T07:37:26;2.80;99.90
58339;DHT22;48278;52.704;6.536;2022-12-07T07:39:52;2.90;99.90
58339;DHT22;48278;52.704;6.536;2022-12-07T07:42:18;2.90;99.90
58339;DHT22;48278;52.704;6.536;2022-12-07T07:44:43;2.80;99.90
58339;DHT22;48278;52.704;6.536;2022-12-07T07:47:09;2.80;99.90
58339;DHT22;48278;52.704;6.536;2022-12-07T07:49:35;2.70;99.90
58339;DHT22;48278;52.704;6.536;2022-12-07T07:52:00;2.80;99.90
58339;DHT22;48278;52.704;6.536;2022-12-07T07:54:26;2.70;99.90
58339;DHT22;48278;52.704;6.536;2022-12-07T07:56:52;2.70;99.90
58339;DHT22;48278;52.704;6.536;2022-12-07T07:59:18;2.70;99.90
58339;DHT22;48278;52.704;6.536;2022-12-07T08:01:44;2.80;99.90
58339;DHT22;48278;52.704;6.536;2022-12-07T08:04:10;2.90;99.90
58339;DHT22;48278;52.704;6.536;2022-12-07T08:06:36;2.80;99.90
58339;DHT22;48278;52.704;6.536;2022-12-07T08:09:02;3.00;99.90
58339;DHT22;48278;52.704;6.536;2022-12-07T08:11:27;3.00;99.90
58339;DHT22;48278;52.704;6.536;2022-12-07T08:13:53;3.10;99.90
58339;DHT22;48278;52.704;6.536;2022-12-07T08:16:19;3.20;99.90
58339;DHT22;48278;52.704;6.536;2022-12-07T08:18:45;3.20;99.90
58339;DHT22;48278;52.704;6.536;2022-12-07T08:21:13;3.20;99.90
58339;DHT22;48278;52.704;6.536;2022-12-07T08:23:39;3.20;99.90
58339;DHT22;48278;52.704;6.536;2022-12-07T08:26:08;3.20;99.90
58339;DHT22;48278;52.704;6.536;2022-12-07T08:28:34;3.20;99.90
58339;DHT22;48278;52.704;6.536;2022-12-07T08:31:01;3.10;99.90
58339;DHT22;48278;52.704;6.536;2022-12-07T08:33:27;3.00;99.90
58339;DHT22;48278;52.704;6.536;2022-12-07T08:35:53;2.90;99.90
58339;DHT22;48278;52.704;6.536;2022-12-07T08:38:18;2.80;99.90
58339;DHT22;48278;52.704;6.536;2022-12-07T08:40:44;2.70;99.90
58339;DHT22;48278;52.704;6.536;2022-12-07T08:43:10;2.70;99.90
58339;DHT22;48278;52.704;6.536;2022-12-07T08:45:36;2.60;99.90
58339;DHT22;48278;52.704;6.536;2022-12-07T08:48:09;2.60;99.90
58339;DHT22;48278;52.704;6.536;2022-12-07T08:50:36;2.50;99.90
58339;DHT22;48278;52.704;6.536;2022-12-07T08:53:03;2.60;99.90
58339;DHT22;48278;52.704;6.536;2022-12-07T08:55:30;2.70;99.90
58339;DHT22;48278;52.704;6.536;2022-12-07T08:57:57;2.80;99.90
58339;DHT22;48278;52.704;6.536;2022-12-07T09:00:24;2.90;99.90
58339;DHT22;48278;52.704;6.536;2022-12-07T09:02:50;3.10;99.90
58339;DHT22;48278;52.704;6.536;2022-12-07T09:05:15;3.20;99.90
58339;DHT22;48278;52.704;6.536;2022-12-07T09:07:43;3.20;99.90
58339;DHT22;48278;52.704;6.536;2022-12-07T09:10:11;3.30;99.90
58339;DHT22;48278;52.704;6.536;2022-12-07T09:12:37;3.40;99.90
58339;DHT22;48278;52.704;6.536;2022-12-07T09:15:03;3.40;99.90
58339;DHT22;48278;52.704;6.536;2022-12-07T09:17:32;3.50;99.90
58339;DHT22;48278;52.704;6.536;2022-12-07T09:19:58;3.60;99.90
58339;DHT22;48278;52.704;6.536;2022-12-07T09:22:29;3.50;99.90
58339;DHT22;48278;52.704;6.536;2022-12-07T09:24:58;3.60;99.90
58339;DHT22;48278;52.704;6.536;2022-12-07T09:27:24;3.50;99.90
58339;DHT22;48278;52.704;6.536;2022-12-07T09:29:50;3.50;99.90
58339;DHT22;48278;52.704;6.536;2022-12-07T09:32:16;3.40;99.90
58339;DHT22;48278;52.704;6.536;2022-12-07T09:34:41;3.40;99.90
58339;DHT22;48278;52.704;6.536;2022-12-07T09:37:07;3.30;99.90
58339;DHT22;48278;52.704;6.536;2022-12-07T09:39:33;3.20;99.90
58339;DHT22;48278;52.704;6.536;2022-12-07T09:41:59;3.20;99.90
58339;DHT22;48278;52.704;6.536;2022-12-07T09:44:28;3.10;99.90
58339;DHT22;48278;52.704;6.536;2022-12-07T09:46:55;3.10;99.90
58339;DHT22;48278;52.704;6.536;2022-12-07T09:49:23;3.00;99.90
58339;DHT22;48278;52.704;6.536;2022-12-07T09:52:26;3.20;99.90
58339;DHT22;48278;52.704;6.536;2022-12-07T09:54:53;3.30;99.90
58339;DHT22;48278;52.704;6.536;2022-12-07T09:57:32;3.40;99.90
58339;DHT22;48278;52.704;6.536;2022-12-07T10:00:03;3.60;99.90
58339;DHT22;48278;52.704;6.536;2022-12-07T10:02:40;3.80;99.90
58339;DHT22;48278;52.704;6.536;2022-12-07T10:05:15;4.10;99.90
58339;DHT22;48278;52.704;6.536;2022-12-07T10:07:41;4.20;99.90
58339;DHT22;48278;52.704;6.536;2022-12-07T10:10:15;4.30;99.90
58339;DHT22;48278;52.704;6.536;2022-12-07T10:13:03;4.40;99.90
58339;DHT22;48278;52.704;6.536;2022-12-07T10:18:32;4.50;99.90
58339;DHT22;48278;52.704;6.536;2022-12-07T10:21:12;4.50;99.90
58339;DHT22;48278;52.704;6.536;2022-12-07T10:23:41;4.50;99.90
58339;DHT22;48278;52.704;6.536;2022-12-07T10:29:42;4.40;99.90
58339;DHT22;48278;52.704;6.536;2022-12-07T10:32:03;4.40;99.90
58339;DHT22;48278;52.704;6.536;2022-12-07T10:34:31;4.40;99.90
58339;DHT22;48278;52.704;6.536;2022-12-07T10:37:15;4.30;99.90
58339;DHT22;48278;52.704;6.536;2022-12-07T10:39:50;4.20;99.90
58339;DHT22;48278;52.704;6.536;2022-12-07T10:44:41;4.30;99.90
58339;DHT22;48278;52.704;6.536;2022-12-07T10:47:30;4.30;99.90
58339;DHT22;48278;52.704;6.536;2022-12-07T10:50:13;4.40;99.90
58339;DHT22;48278;52.704;6.536;2022-12-07T10:52:50;4.50;99.90
58339;DHT22;48278;52.704;6.536;2022-12-07T11:03:53;4.90;99.90
58339;DHT22;48278;52.704;6.536;2022-12-07T11:06:33;5.00;99.90
58339;DHT22;48278;52.704;6.536;2022-12-07T11:09:24;5.10;99.90
58339;DHT22;48278;52.704;6.536;2022-12-07T11:12:05;5.10;99.90
58339;DHT22;48278;52.704;6.536;2022-12-07T11:14:44;5.20;99.90
58339;DHT22;48278;52.704;6.536;2022-12-07T11:18:04;5.20;99.90
58339;DHT22;48278;52.704;6.536;2022-12-07T11:23:50;5.20;99.90
58339;DHT22;48278;52.704;6.536;2022-12-07T11:29:38;5.30;99.90
58339;DHT22;48278;52.704;6.536;2022-12-07T11:35:03;5.30;99.90
58339;DHT22;48278;52.704;6.536;2022-12-07T11:37:34;5.30;99.90
58339;DHT22;48278;52.704;6.536;2022-12-07T11:42:35;5.40;99.90
58339;DHT22;48278;52.704;6.536;2022-12-07T11:45:25;5.40;99.90
58339;DHT22;48278;52.704;6.536;2022-12-07T11:48:02;5.40;99.90
58339;DHT22;48278;52.704;6.536;2022-12-07T11:50:50;5.40;99.90
58339;DHT22;48278;52.704;6.536;2022-12-07T11:53:46;5.30;99.90
58339;DHT22;48278;52.704;6.536;2022-12-07T11:56:17;5.30;99.90
58339;DHT22;48278;52.704;6.536;2022-12-07T12:06:58;5.40;99.90
58339;DHT22;48278;52.704;6.536;2022-12-07T12:09:31;5.40;99.90
58339;DHT22;48278;52.704;6.536;2022-12-07T12:12:21;5.50;99.90
58339;DHT22;48278;52.704;6.536;2022-12-07T12:20:41;5.60;99.90
58339;DHT22;48278;52.704;6.536;2022-12-07T12:23:43;5.60;99.90
58339;DHT22;48278;52.704;6.536;2022-12-07T12:26:32;5.60;99.90
58339;DHT22;48278;52.704;6.536;2022-12-07T12:29:02;5.50;99.90
58339;DHT22;48278;52.704;6.536;2022-12-07T12:31:39;5.50;99.90
58339;DHT22;48278;52.704;6.536;2022-12-07T12:37:41;5.50;99.90
58339;DHT22;48278;52.704;6.536;2022-12-07T12:42:47;5.70;99.90
58339;DHT22;48278;52.704;6.536;2022-12-07T12:48:03;5.70;99.90
58339;DHT22;48278;52.704;6.536;2022-12-07T12:50:36;5.80;99.90
58339;DHT22;48278;52.704;6.536;2022-12-07T13:00:43;5.90;99.90
58339;DHT22;48278;52.704;6.536;2022-12-07T13:03:30;5.80;99.90
58339;DHT22;48278;52.704;6.536;2022-12-07T13:08:52;5.80;99.90
58339;DHT22;48278;52.704;6.536;2022-12-07T13:11:33;6.00;99.90
58339;DHT22;48278;52.704;6.536;2022-12-07T13:17:11;6.00;99.90
58339;DHT22;48278;52.704;6.536;2022-12-07T13:19:53;6.00;99.90
58339;DHT22;48278;52.704;6.536;2022-12-07T13:24:58;6.90;99.90
58339;DHT22;48278;52.704;6.536;2022-12-07T13:27:25;6.20;99.90
58339;DHT22;48278;52.704;6.536;2022-12-07T13:29:53;6.40;99.90
58339;DHT22;48278;52.704;6.536;2022-12-07T13:32:26;6.50;99.90
58339;DHT22;48278;52.704;6.536;2022-12-07T13:34:53;6.40;99.90
58339;DHT22;48278;52.704;6.536;2022-12-07T13:37:32;6.70;99.90
58339;DHT22;48278;52.704;6.536;2022-12-07T13:40:12;6.50;99.90
58339;DHT22;48278;52.704;6.536;2022-12-07T13:42:44;6.40;99.90
58339;DHT22;48278;52.704;6.536;2022-12-07T13:45:30;6.60;99.90
58339;DHT22;48278;52.704;6.536;2022-12-07T13:51:02;6.40;99.90
58339;DHT22;48278;52.704;6.536;2022-12-07T13:53:28;6.30;99.90
58339;DHT22;48278;52.704;6.536;2022-12-07T13:55:57;6.10;99.90
58339;DHT22;48278;52.704;6.536;2022-12-07T13:58:24;5.90;99.90
58339;DHT22;48278;52.704;6.536;2022-12-07T14:00:50;5.60;99.90
58339;DHT22;48278;52.704;6.536;2022-12-07T14:05:43;5.20;99.90
58339;DHT22;48278;52.704;6.536;2022-12-07T14:15:50;5.00;99.90
58339;DHT22;48278;52.704;6.536;2022-12-07T14:18:37;4.90;99.90
58339;DHT22;48278;52.704;6.536;2022-12-07T14:23:36;4.90;99.90
58339;DHT22;48278;52.704;6.536;2022-12-07T14:26:12;4.90;99.90
58339;DHT22;48278;52.704;6.536;2022-12-07T14:28:39;5.00;99.90
58339;DHT22;48278;52.704;6.536;2022-12-07T14:31:14;5.00;99.90
58339;DHT22;48278;52.704;6.536;2022-12-07T14:33:40;4.90;99.90
58339;DHT22;48278;52.704;6.536;2022-12-07T14:36:09;5.00;99.90
58339;DHT22;48278;52.704;6.536;2022-12-07T14:38:34;5.00;99.90
58339;DHT22;48278;52.704;6.536;2022-12-07T14:41:00;5.00;99.90
58339;DHT22;48278;52.704;6.536;2022-12-07T14:43:44;4.90;99.90
58339;DHT22;48278;52.704;6.536;2022-12-07T14:46:10;4.90;99.90
58339;DHT22;48278;52.704;6.536;2022-12-07T14:48:36;4.90;99.90
58339;DHT22;48278;52.704;6.536;2022-12-07T14:51:02;4.90;99.90
58339;DHT22;48278;52.704;6.536;2022-12-07T14:53:33;4.80;99.90
58339;DHT22;48278;52.704;6.536;2022-12-07T14:56:01;4.80;99.90
58339;DHT22;48278;52.704;6.536;2022-12-07T14:58:27;4.70;99.90
58339;DHT22;48278;52.704;6.536;2022-12-07T15:00:52;4.60;99.90
58339;DHT22;48278;52.704;6.536;2022-12-07T15:03:18;4.50;99.90
58339;DHT22;48278;52.704;6.536;2022-12-07T15:05:44;4.40;99.90
58339;DHT22;48278;52.704;6.536;2022-12-07T15:08:13;4.40;99.90
58339;DHT22;48278;52.704;6.536;2022-12-07T15:10:39;4.30;99.90
58339;DHT22;48278;52.704;6.536;2022-12-07T15:13:06;4.30;99.90
58339;DHT22;48278;52.704;6.536;2022-12-07T15:15:51;4.30;99.90
58339;DHT22;48278;52.704;6.536;2022-12-07T15:18:18;4.30;99.90
58339;DHT22;48278;52.704;6.536;2022-12-07T15:20:45;4.30;99.90
58339;DHT22;48278;52.704;6.536;2022-12-07T15:23:11;4.30;99.90
58339;DHT22;48278;52.704;6.536;2022-12-07T15:25:44;4.30;99.90
58339;DHT22;48278;52.704;6.536;2022-12-07T15:28:10;4.30;99.90
58339;DHT22;48278;52.704;6.536;2022-12-07T15:30:39;4.30;99.90
58339;DHT22;48278;52.704;6.536;2022-12-07T15:33:05;4.40;99.90
58339;DHT22;48278;52.704;6.536;2022-12-07T15:35:30;4.40;99.90
58339;DHT22;48278;52.704;6.536;2022-12-07T15:37:56;4.40;99.90
58339;DHT22;48278;52.704;6.536;2022-12-07T15:40:22;4.40;99.90
58339;DHT22;48278;52.704;6.536;2022-12-07T15:42:47;4.40;99.90
58339;DHT22;48278;52.704;6.536;2022-12-07T15:45:13;4.40;99.90
58339;DHT22;48278;52.704;6.536;2022-12-07T15:47:41;4.50;99.90
58339;DHT22;48278;52.704;6.536;2022-12-07T15:50:11;4.40;99.90
58339;DHT22;48278;52.704;6.536;2022-12-07T15:52:37;4.40;99.90
58339;DHT22;48278;52.704;6.536;2022-12-07T15:55:03;4.40;99.90
58339;DHT22;48278;52.704;6.536;2022-12-07T15:57:30;4.30;99.90
58339;DHT22;48278;52.704;6.536;2022-12-07T15:59:56;4.30;99.90
58339;DHT22;48278;52.704;6.536;2022-12-07T16:02:22;4.20;99.90
58339;DHT22;48278;52.704;6.536;2022-12-07T16:04:49;4.20;99.90
58339;DHT22;48278;52.704;6.536;2022-12-07T16:07:15;4.10;99.90
58339;DHT22;48278;52.704;6.536;2022-12-07T16:09:42;4.20;99.90
58339;DHT22;48278;52.704;6.536;2022-12-07T16:12:08;4.10;99.90
58339;DHT22;48278;52.704;6.536;2022-12-07T16:14:34;4.10;99.90
58339;DHT22;48278;52.704;6.536;2022-12-07T16:17:00;4.10;99.90
58339;DHT22;48278;52.704;6.536;2022-12-07T16:19:26;4.00;99.90
58339;DHT22;48278;52.704;6.536;2022-12-07T16:21:52;3.90;99.90
58339;DHT22;48278;52.704;6.536;2022-12-07T16:24:17;3.90;99.90
58339;DHT22;48278;52.704;6.536;2022-12-07T16:26:43;3.80;99.90
58339;DHT22;48278;52.704;6.536;2022-12-07T16:29:12;3.80;99.90
58339;DHT22;48278;52.704;6.536;2022-12-07T16:31:37;3.80;99.90
58339;DHT22;48278;52.704;6.536;2022-12-07T16:34:03;3.70;99.90
58339;DHT22;48278;52.704;6.536;2022-12-07T16:36:29;3.70;99.90
58339;DHT22;48278;52.704;6.536;2022-12-07T16:38:55;3.70;99.90
58339;DHT22;48278;52.704;6.536;2022-12-07T16:41:21;3.70;99.90
58339;DHT22;48278;52.704;6.536;2022-12-07T16:43:47;3.70;99.90
58339;DHT22;48278;52.704;6.536;2022-12-07T16:46:12;3.70;99.90
58339;DHT22;48278;52.704;6.536;2022-12-07T16:48:39;3.70;99.90
58339;DHT22;48278;52.704;6.536;2022-12-07T16:51:07;3.80;99.90
58339;DHT22;48278;52.704;6.536;2022-12-07T16:53:37;3.70;99.90
58339;DHT22;48278;52.704;6.536;2022-12-07T16:56:04;3.70;99.90
58339;DHT22;48278;52.704;6.536;2022-12-07T16:58:30;3.70;99.90
58339;DHT22;48278;52.704;6.536;2022-12-07T17:00:56;3.70;99.90
58339;DHT22;48278;52.704;6.536;2022-12-07T17:03:22;3.70;99.90
58339;DHT22;48278;52.704;6.536;2022-12-07T17:05:48;3.70;99.90
58339;DHT22;48278;52.704;6.536;2022-12-07T17:08:14;3.70;99.90
58339;DHT22;48278;52.704;6.536;2022-12-07T17:10:43;3.70;99.90
58339;DHT22;48278;52.704;6.536;2022-12-07T17:13:09;3.70;99.90
58339;DHT22;48278;52.704;6.536;2022-12-07T17:16:01;3.60;99.90
58339;DHT22;48278;52.704;6.536;2022-12-07T17:18:32;3.60;99.90
58339;DHT22;48278;52.704;6.536;2022-12-07T17:21:06;3.60;99.90
58339;DHT22;48278;52.704;6.536;2022-12-07T17:23:33;3.60;99.90
58339;DHT22;48278;52.704;6.536;2022-12-07T17:26:13;3.60;99.90
58339;DHT22;48278;52.704;6.536;2022-12-07T17:28:39;3.50;99.90
58339;DHT22;48278;52.704;6.536;2022-12-07T17:31:06;3.40;99.90
58339;DHT22;48278;52.704;6.536;2022-12-07T17:33:33;3.40;99.90
58339;DHT22;48278;52.704;6.536;2022-12-07T17:35:59;3.40;99.90
58339;DHT22;48278;52.704;6.536;2022-12-07T17:38:25;3.40;99.90
58339;DHT22;48278;52.704;6.536;2022-12-07T17:40:50;3.40;99.90
58339;DHT22;48278;52.704;6.536;2022-12-07T17:43:16;3.40;99.90
58339;DHT22;48278;52.704;6.536;2022-12-07T17:45:42;3.30;99.90
58339;DHT22;48278;52.704;6.536;2022-12-07T17:48:08;3.40;99.90
58339;DHT22;48278;52.704;6.536;2022-12-07T17:50:33;3.40;99.90
58339;DHT22;48278;52.704;6.536;2022-12-07T17:53:18;3.40;99.90
58339;DHT22;48278;52.704;6.536;2022-12-07T17:55:44;3.30;99.90
58339;DHT22;48278;52.704;6.536;2022-12-07T17:58:09;3.40;99.90
58339;DHT22;48278;52.704;6.536;2022-12-07T18:00:35;3.30;99.90